Etusivu
METAR-TAF:

METAR-TAF

Lentoasemat :

Maarianhaminan lentoasema

Maarianhamina, Suomi

Leveyspiiri: 60-07N, Pituuspiiri: 019-54E, korkeus merenpinnasta: 6 m

Tämänhetkinen sää

Tämä raportti tehtiin 37 minuuttia sitten, kello 11.20 UTC
Tuuli 7 kn lännestä/luoteesta, vaihdellen lounaan ja pohjoisen välillä
Lämpötila 13°C
Kosteus 58%
Ilmanpaine 997 hPa
Näkyvyys 10 km tai enemmän
ei pilviä alle 1500 m:ssä eikä cumulonimbus-pilviä

METAR: EFMA 231120Z AUTO 29007KT 230V010 CAVOK 13/05 Q0997

Aika: 14:57 (11:57 UTC)

Sääennuste

Tämä raportti tehtiin 25 minuuttia sitten, kello 11.32 UTC
Ennuste voimassa 23. päivästä klo 12 UTC - 23. päivään klo 21 UTC
Tuuli 8 kn lännestä/luoteesta
Näkyvyys 10 km tai enemmän
ei pilviä alle 1500 m:ssä eikä cumulonimbus-pilviä

TAF: EFMA 231132Z 2312/2321 30008KT CAVOK

Säähavainnot ja -ennusteet yli 4000 lentoasemalta (METAR- ja TAF-raportit).

Käytössä olevat sääasemat on merkitty karttaan keltaisilla ja punaisilla pisteillä.

Aseta hiiri pisteen päälle nähdäksesi sääaseman nimen.

Klikkaa sitten nähdäksesi säähavainnot ja -ennusteet.

Kartan vaihtaminen: klikkaa mustalla rastilla varustettuja vihreitä pisteitä, niin voit zoomata sisään; viivalla varustettua vihreää pistettä, niin voit zoomata ulos tai vihreitä nuolia, niin pääset viereisille kartoille.


METAR-TAF: